createdAt,value
2018-09-11T03:50:36.907Z,97.00
2018-09-11T03:53:06.675Z,96.73
2018-09-11T03:55:36.666Z,96.95
2018-09-11T03:58:06.620Z,97.78
2018-09-11T04:00:36.387Z,97.64
2018-09-11T04:03:05.924Z,98.07
2018-09-11T04:05:36.549Z,97.68
2018-09-11T04:08:06.182Z,97.42
2018-09-11T04:10:35.947Z,96.87
2018-09-11T04:13:05.672Z,96.68
2018-09-11T04:15:35.527Z,96.64
2018-09-11T04:18:05.206Z,96.75
2018-09-11T04:20:34.833Z,96.73
2018-09-11T04:23:04.697Z,96.63
2018-09-11T04:25:34.484Z,96.66
2018-09-11T04:28:04.059Z,96.67
2018-09-11T04:30:33.728Z,96.82
2018-09-11T04:33:03.251Z,96.73
2018-09-11T04:35:32.897Z,96.77
2018-09-11T04:38:02.410Z,96.85
2018-09-11T04:40:32.152Z,97.13
2018-09-11T04:43:01.926Z,97.43
2018-09-11T04:45:31.609Z,96.52
2018-09-11T04:48:01.156Z,96.01
2018-09-11T04:50:30.868Z,95.38
2018-09-11T04:53:00.264Z,95.53
2018-09-11T04:55:30.023Z,95.23
2018-09-11T04:57:59.555Z,95.06
2018-09-11T05:00:29.397Z,95.24
2018-09-11T05:02:58.958Z,95.17
2018-09-11T05:05:28.906Z,94.79
2018-09-11T05:07:58.488Z,94.96
2018-09-11T05:10:29.108Z,94.93
2018-09-11T05:12:58.689Z,94.18
2018-09-11T05:15:28.429Z,92.69
2018-09-11T05:17:58.221Z,90.79
2018-09-11T05:20:27.975Z,90.20
2018-09-11T05:22:57.707Z,86.99
2018-09-11T05:25:27.479Z,87.47
2018-09-11T05:27:57.711Z,90.06
2018-09-11T05:30:27.618Z,91.56
2018-09-11T05:32:57.090Z,88.48
2018-09-11T05:35:26.833Z,89.91
2018-09-11T05:37:56.506Z,89.65
2018-09-11T05:40:26.367Z,86.61
2018-09-11T05:42:56.088Z,89.31
2018-09-11T05:45:25.872Z,88.91
2018-09-11T05:47:55.466Z,84.24
2018-09-11T05:50:25.196Z,85.57
2018-09-11T05:52:54.715Z,83.83
2018-09-11T05:55:24.276Z,83.87
2018-09-11T05:57:53.863Z,88.78
2018-09-11T06:00:23.782Z,87.11
2018-09-11T06:02:53.303Z,83.83
2018-09-11T06:05:22.985Z,83.39
2018-09-11T06:07:52.630Z,77.63
2018-09-11T06:10:22.725Z,85.35
2018-09-11T06:12:52.392Z,84.77
2018-09-11T06:15:22.020Z,80.16
2018-09-11T06:17:51.936Z,82.98
2018-09-11T06:20:21.630Z,77.32
2018-09-11T06:22:51.276Z,78.93
2018-09-11T06:25:20.907Z,74.90
2018-09-11T06:27:50.484Z,74.72
2018-09-11T06:30:20.246Z,76.09
2018-09-11T06:32:49.996Z,76.06
2018-09-11T06:35:19.757Z,72.47
2018-09-11T06:37:49.278Z,74.39
2018-09-11T06:40:18.997Z,73.18
2018-09-11T06:42:48.760Z,72.79
2018-09-11T06:45:18.538Z,71.02
2018-09-11T06:47:48.213Z,72.16
2018-09-11T06:50:17.828Z,74.03
2018-09-11T06:52:47.512Z,72.38
2018-09-11T06:55:17.265Z,69.69
2018-09-11T06:57:46.823Z,70.79
2018-09-11T07:00:16.470Z,70.94
2018-09-11T07:02:46.026Z,69.28
2018-09-11T07:05:15.667Z,68.79
2018-09-11T07:07:45.408Z,70.57
2018-09-11T07:10:15.556Z,70.91
2018-09-11T07:12:45.331Z,69.94
2018-09-11T07:15:15.046Z,67.33
2018-09-11T07:17:44.750Z,64.84
2018-09-11T07:20:14.850Z,68.32
2018-09-11T07:22:44.200Z,66.21
2018-09-11T07:25:13.812Z,66.46
2018-09-11T07:27:43.453Z,68.12
2018-09-11T07:30:13.239Z,65.78
2018-09-11T07:32:42.753Z,66.30
2018-09-11T07:35:12.747Z,66.59
2018-09-11T07:37:42.229Z,64.05
2018-09-11T07:40:12.059Z,63.17
2018-09-11T07:42:41.725Z,65.24
2018-09-11T07:45:11.638Z,65.04
2018-09-11T07:47:41.124Z,63.78
2018-09-11T07:50:10.770Z,63.05
2018-09-11T07:52:40.515Z,64.92
2018-09-11T07:55:09.941Z,61.19
2018-09-11T07:57:39.661Z,60.47
2018-09-11T08:00:09.402Z,60.92
2018-09-11T08:02:39.149Z,58.74
2018-09-11T08:05:08.802Z,59.38
2018-09-11T08:07:38.341Z,57.28
2018-09-11T08:10:10.077Z,57.68
2018-09-11T08:12:39.576Z,59.39
2018-09-11T08:15:10.552Z,57.89
2018-09-11T08:17:40.272Z,55.67
2018-09-11T08:20:09.798Z,59.11
2018-09-11T08:22:39.450Z,54.75
2018-09-11T08:25:08.983Z,56.91
2018-09-11T08:27:38.667Z,57.66
2018-09-11T08:30:09.209Z,55.35
2018-09-11T08:32:38.853Z,54.66
2018-09-11T08:35:09.049Z,51.88
2018-09-11T08:37:38.669Z,52.24
2018-09-11T08:40:09.951Z,53.88
2018-09-11T08:42:39.489Z,51.63
2018-09-11T08:45:10.515Z,55.54
2018-09-11T08:47:40.270Z,53.79
2018-09-11T08:50:10.077Z,56.30
2018-09-11T08:52:39.923Z,55.03
2018-09-11T08:55:10.169Z,54.79
2018-09-11T08:57:39.956Z,55.77
2018-09-11T09:00:10.963Z,55.49
2018-09-11T09:02:40.563Z,54.94
2018-09-11T09:05:10.221Z,55.68
2018-09-11T09:07:40.658Z,56.11
2018-09-11T09:10:10.400Z,56.12
2018-09-11T09:12:40.117Z,57.00
2018-09-11T09:15:09.746Z,55.67
2018-09-11T09:17:39.483Z,58.20
2018-09-11T09:20:09.048Z,57.60
2018-09-11T09:22:38.797Z,54.73
2018-09-11T09:25:08.356Z,52.77
2018-09-11T09:27:38.268Z,54.02
2018-09-11T09:30:08.438Z,52.81
2018-09-11T09:32:38.173Z,54.78
2018-09-11T09:35:08.328Z,55.37
2018-09-11T09:37:38.018Z,53.67
2018-09-11T09:40:07.780Z,54.08
2018-09-11T09:42:37.536Z,54.49
2018-09-11T09:45:08.923Z,60.08
2018-09-11T09:47:38.655Z,52.90
2018-09-11T09:50:08.443Z,53.42
2018-09-11T09:52:38.810Z,54.02
2018-09-11T09:55:08.435Z,55.48
2018-09-11T09:57:38.195Z,53.81
2018-09-11T10:00:08.730Z,52.77
2018-09-11T10:02:38.508Z,53.08
2018-09-11T10:05:08.268Z,50.18
2018-09-11T10:07:38.039Z,52.42
2018-09-11T10:10:07.642Z,51.64
2018-09-11T10:12:37.611Z,49.99
2018-09-11T10:15:07.317Z,49.13
2018-09-11T10:17:37.101Z,51.04
2018-09-11T10:20:06.687Z,51.95
2018-09-11T10:22:36.593Z,50.44
2018-09-11T10:25:06.356Z,49.64
2018-09-11T10:27:36.186Z,50.43
2018-09-11T10:30:05.864Z,50.37
2018-09-11T10:32:35.479Z,47.31
2018-09-11T10:35:05.152Z,47.04
2018-09-11T10:37:34.798Z,47.55
2018-09-11T10:40:04.597Z,49.28
2018-09-11T10:42:34.186Z,49.17
2018-09-11T10:45:04.154Z,48.27
2018-09-11T10:47:33.911Z,48.23
2018-09-11T10:50:03.625Z,50.86
2018-09-11T10:52:33.347Z,51.71
2018-09-11T10:55:02.855Z,51.44
2018-09-11T10:57:32.602Z,52.81
2018-09-11T11:00:02.370Z,51.90
2018-09-11T11:02:32.103Z,50.98
2018-09-11T11:05:01.862Z,54.89
2018-09-11T11:07:31.645Z,52.57
2018-09-11T11:10:01.194Z,52.87
2018-09-11T11:12:30.969Z,54.35
2018-09-11T11:15:00.604Z,50.14
2018-09-11T11:17:30.340Z,52.80
2018-09-11T11:20:00.179Z,50.23
2018-09-11T11:22:29.978Z,47.97
2018-09-11T11:24:59.710Z,46.47
2018-09-11T11:27:29.397Z,43.61
2018-09-11T11:29:58.943Z,48.32
2018-09-11T11:32:28.638Z,43.20
2018-09-11T11:34:58.610Z,45.88
2018-09-11T11:37:28.485Z,45.87
2018-09-11T11:39:58.206Z,46.14
2018-09-11T11:42:28.623Z,46.29
2018-09-11T11:44:58.350Z,41.87
2018-09-11T11:47:28.113Z,44.16
2018-09-11T11:49:57.875Z,42.85
2018-09-11T11:52:27.522Z,40.06
2018-09-11T11:54:57.260Z,44.50
2018-09-11T11:57:27.117Z,42.80
2018-09-11T11:59:56.862Z,43.08
2018-09-11T12:02:26.720Z,40.36
2018-09-11T12:04:56.362Z,44.67
2018-09-11T12:07:25.993Z,44.04
2018-09-11T12:09:55.622Z,41.86
2018-09-11T12:12:25.395Z,39.48
2018-09-11T12:14:55.157Z,42.18
2018-09-11T12:17:25.083Z,41.39
2018-09-11T12:19:54.820Z,47.01
2018-09-11T12:22:24.753Z,42.72
2018-09-11T12:24:54.512Z,46.10
2018-09-11T12:27:24.230Z,42.16
2018-09-11T12:29:54.035Z,42.86
2018-09-11T12:32:23.854Z,38.02
2018-09-11T12:34:53.603Z,39.46
2018-09-11T12:37:23.313Z,40.58
2018-09-11T12:39:53.118Z,40.55
2018-09-11T12:42:22.820Z,40.96
2018-09-11T12:44:52.297Z,38.06
2018-09-11T12:47:22.282Z,38.54
2018-09-11T12:49:51.793Z,42.76
2018-09-11T12:52:22.191Z,35.44
2018-09-11T12:54:51.959Z,36.45
2018-09-11T12:57:21.748Z,37.14
2018-09-11T12:59:51.316Z,33.65
2018-09-11T13:02:20.993Z,38.19
2018-09-11T13:04:50.664Z,36.60
2018-09-11T13:07:20.420Z,38.64
2018-09-11T13:09:50.179Z,40.74
2018-09-11T13:12:19.947Z,40.12
2018-09-11T13:14:49.606Z,34.66
2018-09-11T13:17:19.578Z,39.59
2018-09-11T13:19:49.261Z,37.54
2018-09-11T13:22:19.164Z,37.05
2018-09-11T13:24:48.777Z,37.90
2018-09-11T13:27:18.536Z,38.78
2018-09-11T13:29:48.077Z,35.23
2018-09-11T13:32:17.804Z,37.12
2018-09-11T13:34:47.303Z,39.69
2018-09-11T13:37:16.990Z,35.91
2018-09-11T13:39:46.825Z,38.05
2018-09-11T13:42:16.385Z,34.73
2018-09-11T13:44:46.083Z,36.17
2018-09-11T13:47:17.131Z,37.94
2018-09-11T13:49:46.624Z,36.66
2018-09-11T13:52:17.464Z,36.42
2018-09-11T13:54:47.143Z,34.36
2018-09-11T13:57:16.935Z,33.05
2018-09-11T13:59:46.675Z,38.43
2018-09-11T14:02:16.501Z,33.20
2018-09-11T14:04:46.197Z,35.65
2018-09-11T14:07:17.401Z,35.15
2018-09-11T14:09:51.215Z,36.35
2018-09-11T14:12:21.271Z,35.92
2018-09-11T14:14:50.813Z,38.81
2018-09-11T14:17:21.430Z,35.04
2018-09-11T14:19:50.913Z,31.25
2018-09-11T14:22:22.625Z,35.85
2018-09-11T14:24:52.128Z,31.61
2018-09-11T14:27:22.871Z,31.66
2018-09-11T14:29:52.479Z,37.92
2018-09-11T14:32:22.971Z,33.55
2018-09-11T14:34:52.580Z,31.37
2018-09-11T14:37:22.373Z,35.87
2018-09-11T14:39:52.142Z,34.98
2018-09-11T14:42:21.965Z,37.30
2018-09-11T14:44:52.606Z,36.43
2018-09-11T14:47:22.338Z,37.75
2018-09-11T14:49:52.756Z,33.06
2018-09-11T14:52:23.169Z,35.66
2018-09-11T14:54:53.655Z,35.10
2018-09-11T14:57:23.410Z,35.38
2018-09-11T14:59:54.109Z,32.79
2018-09-11T15:02:23.816Z,35.33
2018-09-11T15:04:54.858Z,34.77
2018-09-11T15:07:26.052Z,37.24
2018-09-11T15:09:58.466Z,34.69
2018-09-11T15:12:28.366Z,37.81
2018-09-11T15:14:58.871Z,39.08
2018-09-11T15:17:29.396Z,35.45
2018-09-11T15:20:00.228Z,35.30
2018-09-11T15:22:30.515Z,36.01
2018-09-11T15:25:03.143Z,37.27
2018-09-11T15:27:33.906Z,37.31
2018-09-11T15:30:04.361Z,37.53
2018-09-11T15:32:35.273Z,37.16
2018-09-11T15:35:09.228Z,38.44
2018-09-11T15:37:39.016Z,43.41
2018-09-11T15:40:31.546Z,41.89
2018-09-11T15:43:13.078Z,41.14
2018-09-11T15:45:46.236Z,45.42
2018-09-11T15:48:18.706Z,47.59
2018-09-11T15:50:49.770Z,48.41
2018-09-11T16:11:50.839Z,54.66
2018-09-11T16:14:36.859Z,55.78
2018-09-11T16:17:10.417Z,56.31
2018-09-11T16:19:45.467Z,56.24
2018-09-11T16:22:17.103Z,55.36
2018-09-11T16:24:55.846Z,59.88
2018-09-11T16:27:29.092Z,58.73
2018-09-11T16:29:59.283Z,55.73
2018-09-11T16:32:31.313Z,59.85
2018-09-11T16:35:04.754Z,58.88
2018-09-11T16:37:36.097Z,60.48
2018-09-11T16:40:06.421Z,61.79
2018-09-11T16:42:38.854Z,63.65
2018-09-11T16:45:12.295Z,65.36
2018-09-11T16:47:45.740Z,64.52
2018-09-11T16:50:19.742Z,68.60
2018-09-11T16:55:39.474Z,69.71
2018-09-11T16:58:12.287Z,70.23
2018-09-11T17:00:45.580Z,71.55
2018-09-11T17:03:18.367Z,71.39
2018-09-11T17:05:48.599Z,72.88
2018-09-11T17:11:10.349Z,72.33
2018-09-11T17:13:42.396Z,73.09
2018-09-11T17:17:19.157Z,74.52
2018-09-11T17:19:53.061Z,76.42
2018-09-11T17:25:57.306Z,76.46
2018-09-11T17:50:16.124Z,79.92
2018-09-11T17:52:47.793Z,82.26
2018-09-11T17:59:16.327Z,84.54
2018-09-11T18:05:22.899Z,85.75
2018-09-11T18:20:49.166Z,86.14
2018-09-11T18:23:26.049Z,88.14
2018-09-11T18:43:50.741Z,89.56
2018-09-11T18:47:39.772Z,89.29
2018-09-11T18:50:24.572Z,90.18
2018-09-11T18:52:55.489Z,90.61
2018-09-11T19:11:10.283Z,91.73
2018-09-11T19:13:50.238Z,92.36
2018-09-11T19:16:29.322Z,92.13
2018-09-11T19:19:03.007Z,91.34
2018-09-11T19:21:37.840Z,91.43
2018-09-11T19:24:17.763Z,90.50
2018-09-11T19:26:56.737Z,90.74
2018-09-11T19:29:28.918Z,91.12
2018-09-11T19:32:35.947Z,90.87
2018-09-11T19:35:39.709Z,89.67
2018-09-11T19:38:26.536Z,90.37
2018-09-11T19:53:58.581Z,90.79
2018-09-11T19:56:47.308Z,93.17
2018-09-11T19:59:26.349Z,93.17
2018-09-11T20:02:06.249Z,93.36
2018-09-11T20:04:40.198Z,92.55
2018-09-11T20:07:14.216Z,92.41
2018-09-11T20:09:48.166Z,93.29
2018-09-11T20:12:28.988Z,93.72
2018-09-11T20:15:21.025Z,94.07
2018-09-11T20:29:12.782Z,93.67
2018-09-11T20:31:58.842Z,94.38
2018-09-11T20:37:37.850Z,93.65
2018-09-11T20:40:13.578Z,93.45
2018-09-11T20:42:51.504Z,93.58
2018-09-11T20:45:27.514Z,94.12
2018-09-11T20:48:00.520Z,94.16
2018-09-11T20:50:34.280Z,94.92
2018-09-11T20:55:47.166Z,94.61
2018-09-11T21:01:31.691Z,94.04
2018-09-11T21:04:04.141Z,94.03
2018-09-11T21:09:55.953Z,93.67
2018-09-11T21:15:35.793Z,94.43
2018-09-11T21:18:07.694Z,94.69
2018-09-11T21:20:39.144Z,93.94
2018-09-11T21:23:08.918Z,94.55
2018-09-11T21:25:45.271Z,95.03
2018-09-11T21:43:40.426Z,94.98
2018-09-11T21:46:10.563Z,95.20
2018-09-11T21:48:40.232Z,95.17
2018-09-11T21:51:09.870Z,95.10
2018-09-11T21:53:39.658Z,94.12
2018-09-11T21:56:09.578Z,94.56
2018-09-11T21:58:39.184Z,95.39
2018-09-11T22:01:13.663Z,95.98
2018-09-11T22:03:43.333Z,95.20
2018-09-11T22:06:12.938Z,95.27
2018-09-11T22:08:42.526Z,94.89
2018-09-11T22:11:12.190Z,94.30
2018-09-11T22:13:42.200Z,94.92
2018-09-11T22:16:11.944Z,94.45
2018-09-11T22:18:42.859Z,95.16
2018-09-11T22:21:13.085Z,95.01
2018-09-11T22:23:42.854Z,95.96
2018-09-11T22:26:12.634Z,95.27
2018-09-11T22:28:43.017Z,94.82
2018-09-11T22:31:12.754Z,95.13
2018-09-11T22:33:42.195Z,94.42
2018-09-11T22:36:12.613Z,94.99
2018-09-11T22:38:42.311Z,94.56
2018-09-11T22:41:11.907Z,94.59
2018-09-11T22:43:41.480Z,94.93
2018-09-11T22:46:11.102Z,94.67
2018-09-11T22:48:40.752Z,94.64
2018-09-11T22:51:10.532Z,94.29
2018-09-11T22:53:40.299Z,93.83
2018-09-11T22:56:09.956Z,94.40
2018-09-11T22:58:39.465Z,94.85
2018-09-11T23:01:09.245Z,94.68
2018-09-11T23:03:38.794Z,95.55
2018-09-11T23:06:08.808Z,96.08
2018-09-11T23:08:38.212Z,95.90
2018-09-11T23:11:07.961Z,96.15
2018-09-11T23:13:37.720Z,95.09
2018-09-11T23:16:07.475Z,94.89
2018-09-11T23:18:37.011Z,94.18
2018-09-11T23:21:06.960Z,94.41
2018-09-11T23:23:36.521Z,93.81
2018-09-11T23:26:06.228Z,93.87
2018-09-11T23:28:35.829Z,94.26
2018-09-11T23:31:05.522Z,94.18
2018-09-11T23:33:35.242Z,94.21
2018-09-11T23:36:05.094Z,94.40
2018-09-11T23:38:34.755Z,94.06
2018-09-11T23:41:04.448Z,93.77
2018-09-11T23:43:34.094Z,94.87
2018-09-11T23:46:03.653Z,94.91
2018-09-11T23:48:33.243Z,94.78
2018-09-11T23:51:03.201Z,94.53
2018-09-11T23:53:32.935Z,94.89
2018-09-11T23:56:02.674Z,94.75
2018-09-11T23:58:32.778Z,95.41
